Time;durP1;ratioP1;P1;durP2;ratioP2;P2;SDS_P1;SDS_P2;PMS_P1;PMS_P2;Temp;Humidity;BMP_temperature;BMP_pressure;BME280_temperature;BME280_humidity;BME280_pressure;Samples;Min_cycle;Max_cycle;Signal;HPM_P1;HPM_P2
2023/10/14 00:00:46;;;;;;;3.10;1.87;;;11.30;99.90;;;;;;5048548;28;20541;-87
2023/10/14 00:03:27;;;;;;;4.07;2.20;;;11.30;99.90;;;;;;5039430;28;20992;-87
2023/10/14 00:05:55;;;;;;;2.53;1.60;;;11.30;99.90;;;;;;5048396;28;20458;-87
2023/10/14 00:08:26;;;;;;;4.83;1.93;;;11.30;99.90;;;;;;5048038;28;21189;-87
2023/10/14 00:10:53;;;;;;;4.70;2.47;;;11.40;99.90;;;;;;5045115;28;20950;-87
2023/10/14 00:13:20;;;;;;;7.07;2.63;;;11.40;99.90;;;;;;5044891;28;20518;-87
2023/10/14 00:15:47;;;;;;;4.77;2.37;;;11.40;99.90;;;;;;5049451;28;20496;-88
2023/10/14 00:18:14;;;;;;;3.27;2.27;;;11.40;99.90;;;;;;5047984;28;20470;-87
2023/10/14 00:20:42;;;;;;;3.90;2.13;;;11.50;99.90;;;;;;5047687;28;20537;-87
2023/10/14 00:23:11;;;;;;;5.33;3.37;;;11.50;99.90;;;;;;5048110;28;20457;-87
2023/10/14 00:25:39;;;;;;;2.87;2.10;;;11.60;99.90;;;;;;5047746;28;20456;-87
2023/10/14 00:28:12;;;;;;;8.90;3.10;;;11.60;99.90;;;;;;5037879;28;20437;-87
2023/10/14 00:30:40;;;;;;;8.27;2.07;;;11.80;99.90;;;;;;5048014;28;20468;-87
2023/10/14 00:33:07;;;;;;;4.83;2.33;;;11.90;99.90;;;;;;5048579;28;20486;-87
2023/10/14 00:35:39;;;;;;;3.47;2.23;;;11.90;99.90;;;;;;5047949;28;20997;-87
2023/10/14 00:38:09;;;;;;;5.40;2.00;;;11.90;99.90;;;;;;5045273;28;20473;-87
2023/10/14 00:40:38;;;;;;;3.87;1.70;;;11.80;99.90;;;;;;5046696;28;20486;-87
2023/10/14 00:43:07;;;;;;;3.97;2.47;;;11.70;99.90;;;;;;5048087;28;20507;-88
2023/10/14 00:45:43;;;;;;;5.07;2.70;;;11.60;99.90;;;;;;5048373;28;20474;-87
2023/10/14 00:48:14;;;;;;;6.60;3.40;;;11.60;99.90;;;;;;5039374;28;20864;-88
2023/10/14 00:50:41;;;;;;;2.47;1.60;;;11.60;99.90;;;;;;5047456;28;20532;-88
2023/10/14 00:53:09;;;;;;;3.33;2.10;;;11.50;99.90;;;;;;5045231;28;21004;-88
2023/10/14 00:55:45;;;;;;;1.53;1.40;;;11.50;99.90;;;;;;5047044;28;20862;-90
2023/10/14 00:58:20;;;;;;;4.20;2.03;;;11.40;99.90;;;;;;5042650;28;20994;-91
2023/10/14 01:00:57;;;;;;;8.43;2.40;;;11.40;99.90;;;;;;5046261;28;20491;-89
2023/10/14 01:03:25;;;;;;;1.90;1.80;;;11.40;99.90;;;;;;5047186;28;20881;-88
2023/10/14 01:05:55;;;;;;;5.90;1.10;;;11.40;99.90;;;;;;5050460;28;20446;-88
2023/10/14 01:08:25;;;;;;;5.10;2.00;;;11.40;99.90;;;;;;5044728;28;20482;-88
2023/10/14 01:10:52;;;;;;;2.90;1.43;;;11.40;99.90;;;;;;5047208;28;20535;-88
2023/10/14 01:13:22;;;;;;;5.97;2.10;;;11.20;99.90;;;;;;5046442;28;20448;-89
2023/10/14 01:15:51;;;;;;;3.37;2.87;;;11.20;99.90;;;;;;5047472;28;20472;-90
2023/10/14 01:18:18;;;;;;;2.27;1.73;;;11.20;99.90;;;;;;5051556;28;20459;-87
2023/10/14 01:20:46;;;;;;;1.93;1.83;;;11.30;99.90;;;;;;5051432;28;20517;-88
2023/10/14 01:23:16;;;;;;;4.77;1.73;;;11.50;99.90;;;;;;5052245;28;20456;-89
2023/10/14 01:25:48;;;;;;;6.40;2.70;;;11.60;99.90;;;;;;5050015;28;20532;-89
2023/10/14 01:28:21;;;;;;;3.13;2.00;;;11.60;99.90;;;;;;5052279;28;20454;-88
2023/10/14 01:31:24;;;;;;;8.70;1.90;;;11.50;99.90;;;;;;5047056;28;20473;-90
2023/10/14 01:33:51;;;;;;;3.40;2.03;;;11.50;99.90;;;;;;5051966;28;20451;-88
2023/10/14 01:36:20;;;;;;;5.27;1.83;;;11.40;99.90;;;;;;5051603;28;20512;-87
2023/10/14 01:38:57;;;;;;;5.50;2.03;;;11.40;99.90;;;;;;5050326;28;20469;-87
2023/10/14 01:41:25;;;;;;;2.20;1.60;;;11.40;99.90;;;;;;5048966;28;20486;-87
2023/10/14 01:43:53;;;;;;;2.80;1.77;;;11.40;99.90;;;;;;5050427;28;20460;-87
2023/10/14 01:46:21;;;;;;;7.13;3.50;;;11.50;99.90;;;;;;5049560;28;20495;-87
2023/10/14 01:48:52;;;;;;;2.13;1.03;;;11.50;99.90;;;;;;5040434;28;20467;-86
2023/10/14 01:51:20;;;;;;;3.97;1.80;;;11.40;99.90;;;;;;5047919;28;21201;-88
2023/10/14 01:53:48;;;;;;;3.77;1.67;;;11.40;99.90;;;;;;5048692;28;20518;-87
2023/10/14 01:56:17;;;;;;;4.20;2.23;;;11.30;99.90;;;;;;5051792;28;20442;-87
2023/10/14 01:58:45;;;;;;;1.43;1.33;;;11.30;99.90;;;;;;5051147;28;20482;-87
2023/10/14 02:01:15;;;;;;;7.90;2.10;;;11.20;99.90;;;;;;5049673;28;20493;-88
2023/10/14 02:03:46;;;;;;;1.80;1.57;;;11.20;99.90;;;;;;5041823;28;20480;-86
2023/10/14 02:06:18;;;;;;;3.00;1.47;;;11.20;99.90;;;;;;5051070;28;20453;-87
2023/10/14 02:08:46;;;;;;;3.53;1.63;;;11.40;99.90;;;;;;5046677;28;20941;-87
2023/10/14 02:11:20;;;;;;;7.50;2.27;;;11.50;99.90;;;;;;5050965;28;20462;-86
2023/10/14 02:13:47;;;;;;;2.50;1.00;;;11.30;99.90;;;;;;5037999;28;20471;-89
2023/10/14 02:16:14;;;;;;;3.03;1.73;;;11.20;99.90;;;;;;5047445;28;20520;-86
2023/10/14 02:18:41;;;;;;;9.00;2.03;;;11.10;99.90;;;;;;5051177;28;20460;-87
2023/10/14 02:21:11;;;;;;;4.90;1.37;;;10.90;99.90;;;;;;5049416;28;20495;-86
2023/10/14 02:23:47;;;;;;;2.53;1.47;;;10.80;99.90;;;;;;5050212;28;20495;-87
2023/10/14 02:26:22;;;;;;;3.93;1.80;;;10.60;99.90;;;;;;5047448;28;20440;-86
2023/10/14 02:28:51;;;;;;;3.83;2.20;;;10.50;99.90;;;;;;5050402;28;20449;-86
2023/10/14 02:31:28;;;;;;;3.87;1.87;;;10.50;99.90;;;;;;5048537;28;20921;-89
2023/10/14 02:33:56;;;;;;;1.90;1.47;;;10.50;99.90;;;;;;5050355;28;20442;-86
2023/10/14 02:36:28;;;;;;;3.57;1.63;;;10.40;99.90;;;;;;5049408;28;20445;-88
2023/10/14 02:38:56;;;;;;;3.90;2.10;;;10.40;99.90;;;;;;5047350;28;20476;-88
2023/10/14 02:41:29;;;;;;;3.70;1.50;;;10.50;99.90;;;;;;5045979;28;20581;-87
2023/10/14 02:44:13;;;;;;;2.30;1.30;;;10.60;99.90;;;;;;5048908;28;20453;-86
2023/10/14 02:46:43;;;;;;;2.67;1.40;;;10.60;99.90;;;;;;5047320;28;20476;-88
2023/10/14 02:49:13;;;;;;;1.87;1.20;;;10.60;99.90;;;;;;5051280;28;20458;-86
2023/10/14 02:51:42;;;;;;;1.30;1.20;;;10.60;99.90;;;;;;5048595;28;20453;-87
2023/10/14 02:54:15;;;;;;;4.53;2.53;;;10.70;99.90;;;;;;5046842;28;20523;-87
2023/10/14 02:56:56;;;;;;;2.17;1.03;;;10.70;99.90;;;;;;5050519;28;21243;-87
2023/10/14 02:59:36;;;;;;;1.43;1.00;;;10.70;99.90;;;;;;5052255;28;20442;-86
2023/10/14 03:02:16;;;;;;;3.13;1.53;;;10.60;99.90;;;;;;5057629;28;20552;-86
2023/10/14 03:07:28;;;;;;;2.10;1.83;;;10.40;99.90;;;;;;5041809;28;20467;-87
2023/10/14 03:09:58;;;;;;;5.17;1.73;;;10.30;99.90;;;;;;5058493;28;20461;-86
2023/10/14 03:12:27;;;;;;;4.20;2.80;;;10.40;99.90;;;;;;5057759;28;20856;-86
2023/10/14 03:14:54;;;;;;;5.17;2.10;;;10.40;99.90;;;;;;5053507;28;20499;-86
2023/10/14 03:17:39;;;;;;;4.83;1.50;;;10.40;99.90;;;;;;5049089;28;20466;-86
2023/10/14 03:20:34;;;;;;;2.40;1.60;;;10.40;99.90;;;;;;5047054;28;20536;-87
2023/10/14 03:22:57;;;;;;;3.27;1.63;;;10.30;99.90;;;;;;5040853;28;20486;-88
2023/10/14 03:25:24;;;;;;;3.90;1.50;;;10.40;99.90;;;;;;5049977;28;20461;-89
2023/10/14 03:28:00;;;;;;;1.53;1.43;;;10.40;99.90;;;;;;5046745;28;20491;-86
2023/10/14 03:30:28;;;;;;;6.23;1.17;;;10.30;99.90;;;;;;5047012;28;20456;-87
2023/10/14 03:32:55;;;;;;;2.10;1.23;;;10.30;99.90;;;;;;5048997;28;20464;-86
2023/10/14 03:35:28;;;;;;;3.43;1.40;;;10.30;99.90;;;;;;5050214;28;20449;-88
2023/10/14 03:38:00;;;;;;;2.53;1.33;;;10.30;99.90;;;;;;5049506;28;20456;-87
2023/10/14 03:40:51;;;;;;;4.40;1.50;;;10.30;99.90;;;;;;5046111;28;20473;-87
2023/10/14 03:43:20;;;;;;;4.33;1.60;;;10.20;99.90;;;;;;5047710;28;21287;-87
2023/10/14 03:45:56;;;;;;;2.40;1.47;;;10.20;99.90;;;;;;5043710;28;20528;-88
2023/10/14 03:48:28;;;;;;;4.90;1.33;;;10.10;99.90;;;;;;5048926;28;20527;-89
2023/10/14 03:51:02;;;;;;;4.70;1.63;;;10.00;99.90;;;;;;5048758;28;20445;-90
2023/10/14 03:53:31;;;;;;;4.70;1.67;;;9.80;99.90;;;;;;5041690;28;20497;-88
2023/10/14 03:55:59;;;;;;;2.07;1.17;;;9.70;99.90;;;;;;5045697;28;20445;-87
2023/10/14 03:58:28;;;;;;;2.30;1.50;;;9.70;99.90;;;;;;5044585;28;20839;-87
2023/10/14 04:00:56;;;;;;;2.57;1.13;;;9.60;99.90;;;;;;5046731;28;20448;-88
2023/10/14 04:03:39;;;;;;;1.63;1.43;;;9.80;99.90;;;;;;5048929;28;20485;-87
2023/10/14 04:06:08;;;;;;;1.97;1.20;;;10.00;99.90;;;;;;5048238;28;20883;-88
2023/10/14 04:08:40;;;;;;;6.23;1.63;;;10.10;99.90;;;;;;5045254;28;20821;-87
2023/10/14 04:11:13;;;;;;;3.07;1.90;;;10.10;99.90;;;;;;5047879;28;20469;-87
2023/10/14 04:13:50;;;;;;;3.00;1.67;;;10.10;99.90;;;;;;5048631;28;20456;-87
2023/10/14 04:16:27;;;;;;;5.17;1.37;;;9.90;99.90;;;;;;5046533;28;20444;-88
2023/10/14 04:18:59;;;;;;;3.03;1.43;;;9.80;99.90;;;;;;5049453;28;20460;-87
2023/10/14 04:21:35;;;;;;;5.73;1.87;;;9.70;99.90;;;;;;5048249;28;20458;-87
2023/10/14 04:24:13;;;;;;;4.13;3.73;;;9.60;99.90;;;;;;5047394;28;20913;-87
2023/10/14 04:26:41;;;;;;;4.07;1.77;;;9.70;99.90;;;;;;5047552;28;20808;-85
2023/10/14 04:29:21;;;;;;;5.00;1.50;;;9.60;99.90;;;;;;5047865;28;20503;-87
2023/10/14 04:31:56;;;;;;;3.13;1.90;;;9.60;99.90;;;;;;5048212;28;20459;-87
2023/10/14 04:34:23;;;;;;;2.40;1.23;;;9.70;99.90;;;;;;5047216;28;20475;-87
2023/10/14 04:36:56;;;;;;;6.60;2.07;;;9.80;99.90;;;;;;5048821;28;20460;-88
2023/10/14 04:39:32;;;;;;;4.80;1.97;;;9.80;99.90;;;;;;5054586;28;20452;-87
2023/10/14 04:44:54;;;;;;;6.67;2.50;;;9.80;99.90;;;;;;5051967;28;20477;-87
2023/10/14 04:47:27;;;;;;;2.80;2.00;;;9.80;99.90;;;;;;5049694;28;20491;-90
2023/10/14 04:49:54;;;;;;;2.20;2.00;;;9.80;99.90;;;;;;5042979;28;20979;-86
2023/10/14 04:52:26;;;;;;;2.70;1.60;;;9.70;99.90;;;;;;5051285;28;20497;-87
2023/10/14 04:54:54;;;;;;;3.40;1.80;;;9.80;99.90;;;;;;5051739;28;20956;-87
2023/10/14 04:57:23;;;;;;;3.60;2.70;;;9.90;99.90;;;;;;5051923;28;20476;-83
2023/10/14 04:59:53;;;;;;;3.07;2.17;;;9.90;99.90;;;;;;5052062;28;20448;-86
2023/10/14 05:02:30;;;;;;;5.90;2.37;;;9.90;99.90;;;;;;5047105;28;20487;-87
2023/10/14 05:04:59;;;;;;;7.77;2.33;;;9.90;99.90;;;;;;5045117;28;20456;-86
2023/10/14 05:07:28;;;;;;;4.37;2.80;;;9.80;99.90;;;;;;5048522;28;20472;-85
2023/10/14 05:10:05;;;;;;;4.30;3.63;;;9.80;99.90;;;;;;5051376;28;20449;-86
2023/10/14 05:12:40;;;;;;;3.77;2.40;;;9.60;99.90;;;;;;5041850;28;20511;-84
2023/10/14 05:15:19;;;;;;;3.27;2.20;;;9.60;99.90;;;;;;5052016;28;20472;-87
2023/10/14 05:17:50;;;;;;;3.47;2.10;;;9.70;99.90;;;;;;5046913;28;20564;-86
2023/10/14 05:20:22;;;;;;;3.37;1.63;;;9.70;99.90;;;;;;5049761;28;20501;-87
2023/10/14 05:22:52;;;;;;;3.83;1.73;;;9.80;99.90;;;;;;5050714;28;20547;-89
2023/10/14 05:25:27;;;;;;;3.10;1.50;;;9.80;99.90;;;;;;5050424;28;20532;-89
2023/10/14 05:27:58;;;;;;;3.90;1.67;;;9.80;99.90;;;;;;5051211;28;20494;-85
2023/10/14 05:30:33;;;;;;;4.73;2.37;;;9.90;99.90;;;;;;5048426;28;20507;-86
2023/10/14 05:33:06;;;;;;;1.83;1.70;;;9.80;99.90;;;;;;5051378;28;20452;-85
2023/10/14 05:35:38;;;;;;;8.33;3.27;;;9.70;99.90;;;;;;5048324;28;20456;-86
2023/10/14 05:38:09;;;;;;;2.40;1.37;;;9.70;99.90;;;;;;5049968;28;20467;-85
2023/10/14 05:40:38;;;;;;;2.23;1.93;;;9.80;99.90;;;;;;5051318;28;20436;-85
2023/10/14 05:43:06;;;;;;;3.80;1.70;;;9.90;99.90;;;;;;5049979;28;20563;-85
2023/10/14 05:45:35;;;;;;;4.10;2.50;;;10.00;99.90;;;;;;5051214;28;20456;-85
2023/10/14 05:48:04;;;;;;;6.03;2.03;;;10.00;99.90;;;;;;5046914;28;20469;-86
2023/10/14 05:50:32;;;;;;;5.33;2.00;;;10.00;99.90;;;;;;5051402;28;20481;-86
2023/10/14 05:53:01;;;;;;;3.27;2.53;;;9.90;99.90;;;;;;5047686;28;20557;-85
2023/10/14 05:55:29;;;;;;;5.23;1.90;;;9.90;99.90;;;;;;5048358;28;20969;-85
2023/10/14 05:57:58;;;;;;;3.77;2.63;;;9.90;99.90;;;;;;5051633;28;20488;-83
2023/10/14 06:00:25;;;;;;;7.63;2.53;;;10.00;99.90;;;;;;5050892;28;20783;-85
2023/10/14 06:02:55;;;;;;;4.30;2.63;;;10.10;99.90;;;;;;5051830;28;21048;-81
2023/10/14 06:05:22;;;;;;;2.53;1.90;;;10.20;99.90;;;;;;5050662;28;20502;-83
2023/10/14 06:07:49;;;;;;;6.87;4.07;;;10.30;99.90;;;;;;5050348;28;20468;-82
2023/10/14 06:10:20;;;;;;;4.70;2.50;;;10.40;99.90;;;;;;5050453;28;20469;-85
2023/10/14 06:12:51;;;;;;;3.40;2.10;;;10.60;99.90;;;;;;5047034;28;20527;-84
2023/10/14 06:15:19;;;;;;;4.00;2.50;;;10.70;99.90;;;;;;5050599;28;20520;-85
2023/10/14 06:17:48;;;;;;;4.20;2.10;;;10.80;99.90;;;;;;5047547;28;20488;-85
2023/10/14 06:20:20;;;;;;;5.30;2.53;;;10.90;99.90;;;;;;5046482;28;20446;-85
2023/10/14 06:22:47;;;;;;;3.77;2.03;;;11.10;99.90;;;;;;5051340;28;20490;-85
2023/10/14 06:25:16;;;;;;;3.97;2.60;;;11.20;99.90;;;;;;5051479;28;21039;-84
2023/10/14 06:27:45;;;;;;;3.60;2.17;;;11.10;99.90;;;;;;5040062;28;20485;-85
2023/10/14 06:30:22;;;;;;;2.60;1.97;;;11.30;99.90;;;;;;5045069;28;20557;-85
2023/10/14 06:32:52;;;;;;;3.40;2.10;;;11.40;99.90;;;;;;5049999;28;20734;-85
2023/10/14 06:35:21;;;;;;;2.23;1.63;;;11.60;99.90;;;;;;5050327;28;20451;-85
2023/10/14 06:37:49;;;;;;;4.17;2.33;;;11.60;99.90;;;;;;5038384;28;20466;-85
2023/10/14 06:40:18;;;;;;;3.27;1.40;;;11.80;99.90;;;;;;5047746;28;20459;-86
2023/10/14 06:42:49;;;;;;;1.80;1.63;;;11.90;99.90;;;;;;5046431;28;20996;-85
2023/10/14 06:45:18;;;;;;;6.83;1.90;;;12.10;99.90;;;;;;5047247;28;20462;-85
2023/10/14 06:47:51;;;;;;;3.67;2.20;;;12.40;99.90;;;;;;5041176;28;20460;-86
2023/10/14 06:50:25;;;;;;;2.53;1.53;;;12.60;99.90;;;;;;5045881;28;20498;-85
2023/10/14 06:52:58;;;;;;;4.03;2.40;;;12.70;99.90;;;;;;5046085;28;20494;-84
2023/10/14 06:55:26;;;;;;;2.17;1.40;;;12.90;99.90;;;;;;5036970;28;20526;-84
2023/10/14 06:57:55;;;;;;;5.83;1.50;;;12.90;99.90;;;;;;5045908;28;20813;-86
2023/10/14 07:00:30;;;;;;;2.53;1.13;;;13.10;99.90;;;;;;5044739;28;20516;-85
2023/10/14 07:03:01;;;;;;;1.67;1.40;;;13.30;99.90;;;;;;5043618;28;20986;-84
2023/10/14 07:05:30;;;;;;;4.50;1.83;;;13.40;99.90;;;;;;5052381;28;20510;-85
2023/10/14 07:07:58;;;;;;;2.57;2.07;;;13.50;99.90;;;;;;5045594;28;20462;-85
2023/10/14 07:10:33;;;;;;;6.30;1.97;;;13.60;99.90;;;;;;5049340;28;20534;-84
2023/10/14 07:13:02;;;;;;;1.53;1.30;;;13.60;99.90;;;;;;5041378;28;20902;-83
2023/10/14 07:15:31;;;;;;;2.50;1.50;;;13.80;99.90;;;;;;5047936;28;21065;-83
2023/10/14 07:17:58;;;;;;;2.77;1.50;;;13.80;99.90;;;;;;5048578;28;20450;-83
2023/10/14 07:20:29;;;;;;;5.83;1.30;;;13.90;99.90;;;;;;5046231;28;20518;-84
2023/10/14 07:22:58;;;;;;;3.80;1.83;;;14.00;99.90;;;;;;5048056;28;20485;-84
2023/10/14 07:25:26;;;;;;;3.63;1.33;;;14.00;99.90;;;;;;5052696;28;20466;-84
2023/10/14 07:27:53;;;;;;;4.53;2.40;;;14.20;99.90;;;;;;5054120;28;20546;-84
2023/10/14 07:30:26;;;;;;;4.10;1.53;;;14.30;99.90;;;;;;5046161;28;20467;-85
2023/10/14 07:32:53;;;;;;;4.60;1.83;;;14.50;99.90;;;;;;5041575;28;20540;-84
2023/10/14 07:35:20;;;;;;;2.40;1.20;;;14.40;99.90;;;;;;5047573;28;20472;-83
2023/10/14 07:37:49;;;;;;;4.00;1.30;;;14.50;99.90;;;;;;5047831;28;20474;-84
2023/10/14 07:40:27;;;;;;;2.67;1.50;;;14.50;99.90;;;;;;5038395;28;20557;-84
2023/10/14 07:42:55;;;;;;;2.10;1.43;;;14.80;99.90;;;;;;5037752;28;21033;-84
2023/10/14 07:45:28;;;;;;;2.10;1.63;;;15.00;99.90;;;;;;5043241;28;21250;-84
2023/10/14 07:47:56;;;;;;;5.73;3.27;;;15.40;99.90;;;;;;5044888;28;20463;-84
2023/10/14 07:50:23;;;;;;;3.33;2.97;;;15.80;99.90;;;;;;5049330;28;20476;-84
2023/10/14 07:52:51;;;;;;;3.17;1.43;;;16.00;99.90;;;;;;5046011;28;20471;-84
2023/10/14 07:55:22;;;;;;;13.10;1.50;;;16.40;99.20;;;;;;5048820;28;20475;-84
2023/10/14 07:57:49;;;;;;;6.57;2.03;;;16.60;96.40;;;;;;5043085;28;20493;-84
2023/10/14 08:00:17;;;;;;;6.00;2.63;;;16.70;96.80;;;;;;5044937;28;20467;-84
2023/10/14 08:02:44;;;;;;;2.93;2.10;;;16.80;95.90;;;;;;5047898;28;20464;-83
2023/10/14 08:05:12;;;;;;;2.43;1.90;;;16.80;98.00;;;;;;5049689;28;20472;-84
2023/10/14 08:07:44;;;;;;;4.83;2.20;;;16.90;97.80;;;;;;5044443;28;20453;-84
2023/10/14 08:10:19;;;;;;;6.83;2.47;;;17.10;97.20;;;;;;5043289;28;20510;-83
2023/10/14 08:12:52;;;;;;;3.20;2.40;;;17.10;96.30;;;;;;5036825;28;20438;-84
2023/10/14 08:15:19;;;;;;;4.60;2.67;;;17.50;97.50;;;;;;5047544;28;20488;-83
2023/10/14 08:17:48;;;;;;;5.67;3.27;;;17.70;97.90;;;;;;5039311;28;20500;-84
2023/10/14 08:20:18;;;;;;;2.50;1.80;;;17.80;96.80;;;;;;5046387;28;20457;-85
2023/10/14 08:22:47;;;;;;;4.73;2.10;;;18.10;98.70;;;;;;5051349;28;20460;-84
2023/10/14 08:25:18;;;;;;;3.33;1.60;;;18.30;97.00;;;;;;5047242;28;20469;-86
2023/10/14 08:27:47;;;;;;;1.90;1.43;;;18.60;94.80;;;;;;5043538;28;20472;-84
2023/10/14 08:30:16;;;;;;;4.03;1.73;;;18.80;94.30;;;;;;5045099;28;21070;-85
2023/10/14 08:32:44;;;;;;;2.70;1.80;;;19.10;93.70;;;;;;5041100;28;20448;-84
2023/10/14 08:35:27;;;;;;;2.40;1.90;;;19.50;94.00;;;;;;5044314;28;21272;-85
2023/10/14 08:37:54;;;;;;;2.40;1.43;;;20.00;93.60;;;;;;5045048;28;20460;-83
2023/10/14 08:40:25;;;;;;;4.10;2.60;;;20.40;92.00;;;;;;5044625;28;20530;-84
2023/10/14 08:42:56;;;;;;;1.60;1.27;;;20.50;83.20;;;;;;5043164;28;20472;-83
2023/10/14 08:45:25;;;;;;;1.80;1.17;;;20.90;81.40;;;;;;5042164;28;20456;-84
2023/10/14 08:47:54;;;;;;;2.53;1.77;;;21.30;78.20;;;;;;5046106;28;20483;-84
2023/10/14 08:50:23;;;;;;;4.43;1.50;;;21.50;73.20;;;;;;5041070;28;20851;-84
2023/10/14 08:52:53;;;;;;;4.00;2.80;;;21.50;71.60;;;;;;5041487;28;21267;-84
2023/10/14 08:55:21;;;;;;;3.53;1.60;;;21.70;67.20;;;;;;5042362;28;20467;-84
2023/10/14 08:57:49;;;;;;;11.10;3.70;;;21.80;66.80;;;;;;5043654;28;20979;-84
2023/10/14 09:00:24;;;;;;;5.87;1.73;;;22.00;69.50;;;;;;5043322;28;20510;-84
2023/10/14 09:02:53;;;;;;;4.53;1.63;;;22.00;71.20;;;;;;5037230;28;20468;-84
2023/10/14 09:05:21;;;;;;;1.67;1.30;;;22.10;64.60;;;;;;5054949;28;20490;-83
2023/10/14 09:07:50;;;;;;;2.00;1.30;;;22.20;62.70;;;;;;5046396;28;20465;-84
2023/10/14 09:10:19;;;;;;;7.03;2.50;;;22.30;62.70;;;;;;5036602;28;20544;-83
2023/10/14 09:12:57;;;;;;;2.90;1.63;;;22.40;60.40;;;;;;5039903;28;20472;-85
2023/10/14 09:15:27;;;;;;;3.23;2.93;;;22.40;58.10;;;;;;5038911;28;20549;-85
2023/10/14 09:17:57;;;;;;;2.00;1.33;;;22.60;61.20;;;;;;5038757;28;20486;-85
2023/10/14 09:20:32;;;;;;;2.93;2.23;;;22.60;60.60;;;;;;5042449;28;20452;-84
2023/10/14 09:23:19;;;;;;;2.90;1.10;;;22.40;59.10;;;;;;5043079;28;20444;-85
2023/10/14 09:25:49;;;;;;;1.53;1.20;;;22.30;58.60;;;;;;5048511;28;20488;-85
2023/10/14 09:28:19;;;;;;;4.20;1.47;;;22.20;58.60;;;;;;5053005;28;20947;-85
2023/10/14 09:30:50;;;;;;;4.30;2.20;;;22.10;57.70;;;;;;5048427;28;20917;-85
2023/10/14 09:33:20;;;;;;;2.03;1.40;;;22.00;57.30;;;;;;5040339;28;20484;-85
2023/10/14 09:35:49;;;;;;;8.53;2.60;;;22.00;59.90;;;;;;5047923;28;20464;-85
2023/10/14 09:38:21;;;;;;;1.90;1.70;;;22.10;59.60;;;;;;5046869;28;20460;-85
2023/10/14 09:40:54;;;;;;;3.23;1.43;;;22.20;62.60;;;;;;5051189;28;20459;-86
2023/10/14 09:43:23;;;;;;;1.53;1.43;;;22.20;57.20;;;;;;5044888;28;20538;-85
2023/10/14 09:45:55;;;;;;;1.63;1.50;;;22.20;57.60;;;;;;5046705;28;20476;-85
2023/10/14 09:48:24;;;;;;;9.20;1.60;;;22.20;58.60;;;;;;5044858;28;20468;-85
2023/10/14 09:50:54;;;;;;;2.50;1.90;;;22.30;58.80;;;;;;5045809;28;20471;-85
2023/10/14 09:53:26;;;;;;;2.60;1.80;;;22.50;58.30;;;;;;5036964;28;20469;-85
2023/10/14 09:55:54;;;;;;;1.70;1.43;;;22.60;59.10;;;;;;5044770;28;20487;-85
2023/10/14 09:58:24;;;;;;;1.93;1.57;;;22.50;57.60;;;;;;5048902;28;20542;-85
2023/10/14 10:00:52;;;;;;;2.77;2.20;;;22.60;57.20;;;;;;5042207;28;20920;-85
2023/10/14 10:03:21;;;;;;;2.60;1.43;;;22.80;60.30;;;;;;5049366;28;20498;-85
2023/10/14 10:06:00;;;;;;;2.20;1.40;;;23.00;57.60;;;;;;5049907;28;20464;-86
2023/10/14 10:09:03;;;;;;;5.43;1.50;;;23.10;57.30;;;;;;5043283;28;20944;-85
2023/10/14 10:11:33;;;;;;;4.73;1.37;;;23.30;58.80;;;;;;5032050;28;20468;-85
2023/10/14 10:14:01;;;;;;;5.00;1.40;;;23.20;55.10;;;;;;5048983;28;21033;-85
2023/10/14 10:16:33;;;;;;;2.33;2.13;;;23.30;55.90;;;;;;5051859;28;20492;-85
2023/10/14 10:19:01;;;;;;;2.40;1.40;;;23.30;55.30;;;;;;5044282;28;21008;-85
2023/10/14 10:21:30;;;;;;;1.50;1.27;;;23.60;58.60;;;;;;5044616;28;20498;-85
2023/10/14 10:24:16;;;;;;;2.80;2.10;;;23.40;57.40;;;;;;5048662;28;20576;-85
2023/10/14 10:26:58;;;;;;;4.30;2.17;;;23.40;56.90;;;;;;5052052;28;20555;-85
2023/10/14 10:29:27;;;;;;;3.30;1.37;;;23.30;54.30;;;;;;5041712;28;20456;-85
2023/10/14 10:32:08;;;;;;;6.30;2.43;;;23.20;55.60;;;;;;5042127;28;20848;-85
2023/10/14 10:34:55;;;;;;;2.53;1.13;;;23.20;57.00;;;;;;5049094;28;20444;-85
2023/10/14 10:37:27;;;;;;;1.63;1.30;;;23.10;55.00;;;;;;5039208;28;20562;-85
2023/10/14 10:39:55;;;;;;;2.20;1.30;;;22.90;56.90;;;;;;5042628;28;20549;-85
2023/10/14 10:42:22;;;;;;;4.37;1.40;;;22.70;56.10;;;;;;5047962;28;20464;-85
2023/10/14 10:44:49;;;;;;;2.03;1.10;;;22.50;56.30;;;;;;5044580;28;20496;-85
2023/10/14 10:47:17;;;;;;;3.10;1.23;;;22.20;57.50;;;;;;5045128;28;20534;-84
2023/10/14 10:49:56;;;;;;;2.43;1.40;;;21.80;57.60;;;;;;5040978;28;21026;-85
2023/10/14 10:52:24;;;;;;;2.20;0.90;;;21.80;59.60;;;;;;5034268;28;20465;-84
2023/10/14 10:54:52;;;;;;;1.60;1.50;;;21.70;57.20;;;;;;5045483;28;20473;-85
2023/10/14 10:57:20;;;;;;;2.23;0.80;;;21.90;58.00;;;;;;5034431;28;20484;-84
2023/10/14 10:59:47;;;;;;;2.10;1.30;;;22.10;58.30;;;;;;5046834;28;21029;-85
2023/10/14 11:02:18;;;;;;;1.53;0.90;;;22.40;63.00;;;;;;5040956;28;20551;-84
2023/10/14 11:04:48;;;;;;;4.37;1.60;;;22.70;61.50;;;;;;5042847;28;20519;-85
2023/10/14 11:07:16;;;;;;;2.00;1.03;;;22.80;61.10;;;;;;5045463;28;20460;-85
2023/10/14 11:09:43;;;;;;;1.17;1.07;;;22.80;58.40;;;;;;5044810;28;20489;-85
2023/10/14 11:12:11;;;;;;;1.10;0.80;;;22.40;57.00;;;;;;5048165;28;20487;-86
2023/10/14 11:14:38;;;;;;;2.30;1.00;;;22.20;58.30;;;;;;5046229;28;20986;-85
2023/10/14 11:17:06;;;;;;;1.30;0.90;;;21.90;58.90;;;;;;5041071;28;20475;-85
2023/10/14 11:19:34;;;;;;;2.10;1.50;;;21.80;59.10;;;;;;5036966;28;20814;-85
2023/10/14 11:22:05;;;;;;;4.90;1.10;;;21.80;58.80;;;;;;5043994;28;20507;-85
2023/10/14 11:24:32;;;;;;;4.10;2.10;;;22.00;60.40;;;;;;5047640;28;20481;-83
2023/10/14 11:27:01;;;;;;;1.80;1.17;;;22.00;60.70;;;;;;5052288;28;20457;-83
2023/10/14 11:29:28;;;;;;;2.80;1.53;;;21.90;62.80;;;;;;5042626;28;20451;-83
2023/10/14 11:31:59;;;;;;;1.50;0.93;;;22.00;62.30;;;;;;5038506;28;20521;-83
2023/10/14 11:34:33;;;;;;;2.70;1.40;;;21.90;61.60;;;;;;5046842;28;20440;-83
2023/10/14 11:37:01;;;;;;;6.00;1.43;;;21.70;59.60;;;;;;5040328;28;20514;-86
2023/10/14 11:39:32;;;;;;;1.93;1.30;;;21.60;60.20;;;;;;5043809;28;20515;-84
2023/10/14 11:42:01;;;;;;;1.93;1.53;;;21.60;62.00;;;;;;5042168;28;20448;-83
2023/10/14 11:44:29;;;;;;;4.53;1.60;;;21.60;62.10;;;;;;5038364;28;20484;-84
2023/10/14 11:46:59;;;;;;;2.20;1.33;;;21.50;59.40;;;;;;5039359;28;20538;-83
2023/10/14 11:49:27;;;;;;;1.80;1.40;;;21.40;61.80;;;;;;5041122;28;20566;-83
2023/10/14 11:51:54;;;;;;;2.07;1.10;;;21.30;61.40;;;;;;5035928;28;20881;-83
2023/10/14 11:54:24;;;;;;;3.93;1.30;;;21.30;65.00;;;;;;5041329;28;20851;-83
2023/10/14 11:56:51;;;;;;;5.33;1.70;;;21.20;65.40;;;;;;5046413;28;21234;-83
2023/10/14 11:59:18;;;;;;;1.70;1.60;;;21.20;67.80;;;;;;5045077;28;20960;-83
2023/10/14 12:01:46;;;;;;;4.60;1.60;;;21.20;69.90;;;;;;5045437;28;20461;-83
2023/10/14 12:04:14;;;;;;;3.40;1.00;;;21.20;71.40;;;;;;5042066;28;20560;-83
2023/10/14 12:06:42;;;;;;;2.07;1.57;;;21.10;66.20;;;;;;5042877;28;21213;-83
2023/10/14 12:09:10;;;;;;;3.03;1.37;;;21.10;67.00;;;;;;5044017;28;20476;-83
2023/10/14 12:11:41;;;;;;;2.50;1.20;;;21.10;69.20;;;;;;5042696;28;20441;-83
2023/10/14 12:14:11;;;;;;;1.83;1.47;;;21.10;66.30;;;;;;5046485;28;20445;-83
2023/10/14 12:16:38;;;;;;;1.20;1.00;;;21.10;67.50;;;;;;5041151;28;20467;-83
2023/10/14 12:19:05;;;;;;;3.90;1.23;;;21.30;67.70;;;;;;5041455;28;20945;-83
2023/10/14 12:21:32;;;;;;;9.00;1.10;;;21.20;66.00;;;;;;5046586;28;20473;-83
2023/10/14 12:24:01;;;;;;;2.27;2.07;;;21.20;66.30;;;;;;5034092;28;21365;-83
2023/10/14 12:26:30;;;;;;;2.00;1.30;;;21.20;66.40;;;;;;5041118;28;20441;-83
2023/10/14 12:28:58;;;;;;;1.80;1.67;;;21.30;64.40;;;;;;5044865;28;20473;-83
2023/10/14 12:31:27;;;;;;;3.50;2.13;;;21.20;64.00;;;;;;5043112;28;20524;-83
2023/10/14 12:33:58;;;;;;;3.37;1.53;;;21.20;66.10;;;;;;5043079;28;20471;-83
2023/10/14 12:36:27;;;;;;;1.10;1.00;;;21.20;65.40;;;;;;5043197;28;20488;-83
2023/10/14 12:38:54;;;;;;;4.57;1.00;;;21.20;64.30;;;;;;5042160;28;20457;-84
2023/10/14 12:41:22;;;;;;;1.13;0.90;;;21.20;64.20;;;;;;5045779;28;20504;-83
2023/10/14 12:43:51;;;;;;;3.40;1.30;;;21.10;64.10;;;;;;5045172;28;20537;-83
2023/10/14 12:46:22;;;;;;;4.80;2.20;;;20.90;64.70;;;;;;5043929;28;20567;-81
2023/10/14 12:48:50;;;;;;;2.43;1.43;;;20.80;65.10;;;;;;5044538;28;20503;-83
2023/10/14 12:51:25;;;;;;;2.87;2.40;;;20.70;65.50;;;;;;5040677;28;20980;-83
2023/10/14 12:53:57;;;;;;;1.87;1.30;;;20.70;65.20;;;;;;5033239;28;20463;-82
2023/10/14 12:56:26;;;;;;;1.50;1.40;;;20.70;66.00;;;;;;5044973;28;20522;-83
2023/10/14 12:58:56;;;;;;;1.87;1.30;;;20.60;66.60;;;;;;5033364;28;20591;-76
2023/10/14 13:01:25;;;;;;;2.37;2.17;;;20.60;66.00;;;;;;5043877;28;21139;-85
2023/10/14 13:03:53;;;;;;;3.87;2.03;;;20.60;63.40;;;;;;5047465;28;20534;-85
2023/10/14 13:06:23;;;;;;;2.20;1.20;;;20.60;65.50;;;;;;5049647;28;20488;-84
2023/10/14 13:08:50;;;;;;;1.27;1.17;;;20.60;62.80;;;;;;5043073;28;20959;-82
2023/10/14 13:11:18;;;;;;;1.97;1.07;;;20.50;64.20;;;;;;5047525;28;21069;-85